Main page
METAR-TAF:

METAR-TAF

Airports :

Mannheim City Airport

Mannheim, Germany

latitude: 49-28-21N, longitude: 008-30-56E, elevation: 100 m

Current weather observation

The report was made 1 hour and 14 minutes ago, at 04:50 UTC
Wind 5 kt from the South/Southeast
Temperature 2°C
Humidity 93%
Pressure 1011 hPa
Visibility 10 km or more
Broken clouds at a height of 2100 ft
Overcast at a height of 3500 ft

METAR: EDFM 080450Z 15005KT 9999 BKN021 OVC035 02/01 Q1011

Time: 07:04 (06:04 UTC)

Forecast

The report was made 13 hours and 4 minutes ago, at 17:00 UTC
Forecast valid from 07 at 18 UTC to 07 at 21 UTC
Wind 4 kt from the South
Visibility 10 km or more
Broken clouds at a height of 3000 ft

TAF: EDFM 071700Z 0718/0721 18004KT 9999 BKN030

Weather observations and forecasts of more than 4000 airports (METAR and TAF reports).

The available stations are represented by yellow and red dots on the map.

Hover mouse over dot to see the name of the station.

Then click to see weather observations and forecasts.

To change the map : click on the green buttons with a black cross to zoom in, on the green button with a dash to zoom out, or on the green arrows for adjacent maps.


METAR-TAF: